sensor_id;sensor_type;location;lat;lon;timestamp;P1;durP1;ratioP1;P2;durP2;ratioP2
72676;SDS011;60755;51.374;10.662;2023-02-28T00:00:11;1.53;;;1.53;;
72676;SDS011;60755;51.374;10.662;2023-02-28T00:02:40;2.10;;;2.00;;
72676;SDS011;60755;51.374;10.662;2023-02-28T00:05:09;1.70;;;1.60;;
72676;SDS011;60755;51.374;10.662;2023-02-28T00:07:37;2.10;;;2.00;;
72676;SDS011;60755;51.374;10.662;2023-02-28T00:10:04;2.47;;;2.33;;
72676;SDS011;60755;51.374;10.662;2023-02-28T00:12:33;2.30;;;2.20;;
72676;SDS011;60755;51.374;10.662;2023-02-28T00:15:02;1.80;;;1.70;;
72676;SDS011;60755;51.374;10.662;2023-02-28T00:17:32;1.80;;;1.70;;
72676;SDS011;60755;51.374;10.662;2023-02-28T00:19:59;1.63;;;1.63;;
72676;SDS011;60755;51.374;10.662;2023-02-28T00:22:35;1.60;;;1.60;;
72676;SDS011;60755;51.374;10.662;2023-02-28T00:25:03;1.67;;;1.57;;
72676;SDS011;60755;51.374;10.662;2023-02-28T00:27:32;1.80;;;1.70;;
72676;SDS011;60755;51.374;10.662;2023-02-28T00:29:59;2.53;;;1.67;;
72676;SDS011;60755;51.374;10.662;2023-02-28T00:32:27;1.60;;;1.50;;
72676;SDS011;60755;51.374;10.662;2023-02-28T00:34:55;1.90;;;1.80;;
72676;SDS011;60755;51.374;10.662;2023-02-28T00:37:22;2.10;;;2.00;;
72676;SDS011;60755;51.374;10.662;2023-02-28T00:39:49;3.60;;;1.70;;
72676;SDS011;60755;51.374;10.662;2023-02-28T00:42:16;2.13;;;2.03;;
72676;SDS011;60755;51.374;10.662;2023-02-28T00:44:43;2.57;;;2.37;;
72676;SDS011;60755;51.374;10.662;2023-02-28T00:47:10;2.43;;;2.23;;
72676;SDS011;60755;51.374;10.662;2023-02-28T00:49:39;3.17;;;1.80;;
72676;SDS011;60755;51.374;10.662;2023-02-28T00:52:08;1.90;;;1.90;;
72676;SDS011;60755;51.374;10.662;2023-02-28T00:54:36;1.90;;;1.80;;
72676;SDS011;60755;51.374;10.662;2023-02-28T00:57:03;1.60;;;1.50;;
72676;SDS011;60755;51.374;10.662;2023-02-28T00:59:30;2.30;;;2.10;;
72676;SDS011;60755;51.374;10.662;2023-02-28T01:01:57;1.83;;;1.73;;
72676;SDS011;60755;51.374;10.662;2023-02-28T01:04:24;2.37;;;2.00;;
72676;SDS011;60755;51.374;10.662;2023-02-28T01:06:53;1.90;;;1.80;;
72676;SDS011;60755;51.374;10.662;2023-02-28T01:09:20;2.33;;;2.10;;
72676;SDS011;60755;51.374;10.662;2023-02-28T01:11:47;1.83;;;1.73;;
72676;SDS011;60755;51.374;10.662;2023-02-28T01:14:14;1.70;;;1.70;;
72676;SDS011;60755;51.374;10.662;2023-02-28T01:16:44;1.67;;;1.57;;
72676;SDS011;60755;51.374;10.662;2023-02-28T01:19:12;2.80;;;2.60;;
72676;SDS011;60755;51.374;10.662;2023-02-28T01:21:39;1.83;;;1.73;;
72676;SDS011;60755;51.374;10.662;2023-02-28T01:24:07;2.00;;;1.80;;
72676;SDS011;60755;51.374;10.662;2023-02-28T01:26:35;2.20;;;2.00;;
72676;SDS011;60755;51.374;10.662;2023-02-28T01:29:02;2.17;;;1.97;;
72676;SDS011;60755;51.374;10.662;2023-02-28T01:31:29;2.07;;;1.97;;
72676;SDS011;60755;51.374;10.662;2023-02-28T01:33:56;1.87;;;1.77;;
72676;SDS011;60755;51.374;10.662;2023-02-28T01:36:27;1.70;;;1.70;;
72676;SDS011;60755;51.374;10.662;2023-02-28T01:38:55;1.90;;;1.67;;
72676;SDS011;60755;51.374;10.662;2023-02-28T01:41:25;1.83;;;1.73;;
72676;SDS011;60755;51.374;10.662;2023-02-28T01:44:03;1.97;;;1.87;;
72676;SDS011;60755;51.374;10.662;2023-02-28T01:46:31;1.73;;;1.73;;
72676;SDS011;60755;51.374;10.662;2023-02-28T01:49:02;2.40;;;2.00;;
72676;SDS011;60755;51.374;10.662;2023-02-28T01:51:35;1.73;;;1.73;;
72676;SDS011;60755;51.374;10.662;2023-02-28T01:54:12;2.27;;;1.77;;
72676;SDS011;60755;51.374;10.662;2023-02-28T01:56:46;1.90;;;1.80;;
72676;SDS011;60755;51.374;10.662;2023-02-28T01:59:18;1.90;;;1.80;;
72676;SDS011;60755;51.374;10.662;2023-02-28T02:01:50;2.20;;;2.00;;
72676;SDS011;60755;51.374;10.662;2023-02-28T02:04:18;3.53;;;2.53;;
72676;SDS011;60755;51.374;10.662;2023-02-28T02:06:48;2.20;;;2.10;;
72676;SDS011;60755;51.374;10.662;2023-02-28T02:09:15;2.20;;;2.10;;
72676;SDS011;60755;51.374;10.662;2023-02-28T02:11:42;2.13;;;1.90;;
72676;SDS011;60755;51.374;10.662;2023-02-28T02:14:20;2.10;;;2.00;;
72676;SDS011;60755;51.374;10.662;2023-02-28T02:17:04;2.27;;;1.70;;
72676;SDS011;60755;51.374;10.662;2023-02-28T02:19:49;1.77;;;1.67;;
72676;SDS011;60755;51.374;10.662;2023-02-28T02:22:38;1.93;;;1.67;;
72676;SDS011;60755;51.374;10.662;2023-02-28T02:25:24;2.17;;;1.90;;
72676;SDS011;60755;51.374;10.662;2023-02-28T02:28:11;2.63;;;1.83;;
72676;SDS011;60755;51.374;10.662;2023-02-28T02:31:06;2.07;;;1.87;;
72676;SDS011;60755;51.374;10.662;2023-02-28T02:36:51;2.00;;;1.90;;
72676;SDS011;60755;51.374;10.662;2023-02-28T02:39:25;2.20;;;2.03;;
72676;SDS011;60755;51.374;10.662;2023-02-28T02:41:58;2.10;;;2.00;;
72676;SDS011;60755;51.374;10.662;2023-02-28T02:44:34;1.73;;;1.63;;
72676;SDS011;60755;51.374;10.662;2023-02-28T02:47:08;3.40;;;2.07;;
72676;SDS011;60755;51.374;10.662;2023-02-28T02:49:39;1.77;;;1.73;;
72676;SDS011;60755;51.374;10.662;2023-02-28T02:52:14;2.00;;;1.70;;
72676;SDS011;60755;51.374;10.662;2023-02-28T02:54:44;2.63;;;2.17;;
72676;SDS011;60755;51.374;10.662;2023-02-28T02:57:15;2.20;;;2.10;;
72676;SDS011;60755;51.374;10.662;2023-02-28T02:59:49;2.80;;;1.80;;
72676;SDS011;60755;51.374;10.662;2023-02-28T03:02:19;1.60;;;1.60;;
72676;SDS011;60755;51.374;10.662;2023-02-28T03:04:50;1.73;;;1.63;;
72676;SDS011;60755;51.374;10.662;2023-02-28T03:07:20;1.97;;;1.87;;
72676;SDS011;60755;51.374;10.662;2023-02-28T03:09:51;2.10;;;1.90;;
72676;SDS011;60755;51.374;10.662;2023-02-28T03:12:19;2.07;;;1.90;;
72676;SDS011;60755;51.374;10.662;2023-02-28T03:14:53;2.30;;;2.20;;
72676;SDS011;60755;51.374;10.662;2023-02-28T03:20:19;1.70;;;1.70;;
72676;SDS011;60755;51.374;10.662;2023-02-28T03:23:01;2.50;;;2.00;;
72676;SDS011;60755;51.374;10.662;2023-02-28T03:25:37;2.10;;;1.53;;
72676;SDS011;60755;51.374;10.662;2023-02-28T03:28:15;1.83;;;1.73;;
72676;SDS011;60755;51.374;10.662;2023-02-28T03:30:49;2.20;;;1.83;;
72676;SDS011;60755;51.374;10.662;2023-02-28T03:33:20;2.10;;;1.90;;
72676;SDS011;60755;51.374;10.662;2023-02-28T03:35:52;1.80;;;1.70;;
72676;SDS011;60755;51.374;10.662;2023-02-28T03:38:22;1.73;;;1.63;;
72676;SDS011;60755;51.374;10.662;2023-02-28T03:40:57;1.90;;;1.80;;
72676;SDS011;60755;51.374;10.662;2023-02-28T03:43:28;1.90;;;1.80;;
72676;SDS011;60755;51.374;10.662;2023-02-28T03:46:00;2.83;;;1.90;;
72676;SDS011;60755;51.374;10.662;2023-02-28T03:48:34;1.90;;;1.80;;
72676;SDS011;60755;51.374;10.662;2023-02-28T03:51:07;4.57;;;1.80;;
72676;SDS011;60755;51.374;10.662;2023-02-28T03:53:37;1.90;;;1.80;;
72676;SDS011;60755;51.374;10.662;2023-02-28T03:56:09;1.73;;;1.63;;
72676;SDS011;60755;51.374;10.662;2023-02-28T03:58:41;1.60;;;1.50;;
72676;SDS011;60755;51.374;10.662;2023-02-28T04:01:15;3.00;;;2.47;;
72676;SDS011;60755;51.374;10.662;2023-02-28T04:03:47;2.40;;;2.20;;
72676;SDS011;60755;51.374;10.662;2023-02-28T04:06:18;3.53;;;2.67;;
72676;SDS011;60755;51.374;10.662;2023-02-28T04:08:47;5.43;;;3.93;;
72676;SDS011;60755;51.374;10.662;2023-02-28T04:11:19;4.70;;;3.17;;
72676;SDS011;60755;51.374;10.662;2023-02-28T04:13:48;7.13;;;4.37;;
72676;SDS011;60755;51.374;10.662;2023-02-28T04:16:15;9.40;;;5.80;;
72676;SDS011;60755;51.374;10.662;2023-02-28T04:18:55;3.60;;;2.50;;
72676;SDS011;60755;51.374;10.662;2023-02-28T04:21:28;5.57;;;3.70;;
72676;SDS011;60755;51.374;10.662;2023-02-28T04:23:55;7.53;;;4.53;;
72676;SDS011;60755;51.374;10.662;2023-02-28T04:26:27;9.37;;;4.93;;
72676;SDS011;60755;51.374;10.662;2023-02-28T04:28:56;5.40;;;2.93;;
72676;SDS011;60755;51.374;10.662;2023-02-28T04:31:23;3.10;;;2.57;;
72676;SDS011;60755;51.374;10.662;2023-02-28T04:33:49;1.90;;;1.80;;
72676;SDS011;60755;51.374;10.662;2023-02-28T04:36:17;2.50;;;2.23;;
72676;SDS011;60755;51.374;10.662;2023-02-28T04:38:45;2.10;;;2.00;;
72676;SDS011;60755;51.374;10.662;2023-02-28T04:41:13;2.17;;;2.00;;
72676;SDS011;60755;51.374;10.662;2023-02-28T04:43:40;2.43;;;2.00;;
72676;SDS011;60755;51.374;10.662;2023-02-28T04:46:07;6.77;;;2.70;;
72676;SDS011;60755;51.374;10.662;2023-02-28T04:48:37;5.63;;;3.37;;
72676;SDS011;60755;51.374;10.662;2023-02-28T04:51:06;3.07;;;2.77;;
72676;SDS011;60755;51.374;10.662;2023-02-28T04:53:34;4.93;;;3.00;;
72676;SDS011;60755;51.374;10.662;2023-02-28T04:56:04;4.13;;;2.70;;
72676;SDS011;60755;51.374;10.662;2023-02-28T04:58:32;3.27;;;2.60;;
72676;SDS011;60755;51.374;10.662;2023-02-28T05:01:03;6.40;;;3.13;;
72676;SDS011;60755;51.374;10.662;2023-02-28T05:03:38;6.77;;;3.70;;
72676;SDS011;60755;51.374;10.662;2023-02-28T05:06:06;5.10;;;2.87;;
72676;SDS011;60755;51.374;10.662;2023-02-28T05:08:33;5.53;;;3.33;;
72676;SDS011;60755;51.374;10.662;2023-02-28T05:11:00;13.10;;;6.03;;
72676;SDS011;60755;51.374;10.662;2023-02-28T05:13:28;5.53;;;3.47;;
72676;SDS011;60755;51.374;10.662;2023-02-28T05:15:55;2.27;;;2.17;;
72676;SDS011;60755;51.374;10.662;2023-02-28T05:18:22;2.27;;;2.17;;
72676;SDS011;60755;51.374;10.662;2023-02-28T05:20:49;2.90;;;2.23;;
72676;SDS011;60755;51.374;10.662;2023-02-28T05:23:16;3.60;;;3.03;;
72676;SDS011;60755;51.374;10.662;2023-02-28T05:25:46;3.20;;;2.20;;
72676;SDS011;60755;51.374;10.662;2023-02-28T05:28:13;4.07;;;3.40;;
72676;SDS011;60755;51.374;10.662;2023-02-28T05:30:41;14.10;;;7.10;;
72676;SDS011;60755;51.374;10.662;2023-02-28T05:33:09;5.13;;;3.43;;
72676;SDS011;60755;51.374;10.662;2023-02-28T05:35:37;3.20;;;2.90;;
72676;SDS011;60755;51.374;10.662;2023-02-28T05:38:05;2.60;;;2.33;;
72676;SDS011;60755;51.374;10.662;2023-02-28T05:40:32;6.30;;;3.60;;
72676;SDS011;60755;51.374;10.662;2023-02-28T05:42:59;5.70;;;3.43;;
72676;SDS011;60755;51.374;10.662;2023-02-28T05:45:27;2.77;;;2.63;;
72676;SDS011;60755;51.374;10.662;2023-02-28T05:47:55;3.67;;;3.37;;
72676;SDS011;60755;51.374;10.662;2023-02-28T05:50:22;5.47;;;4.13;;
72676;SDS011;60755;51.374;10.662;2023-02-28T05:52:49;13.10;;;4.10;;
72676;SDS011;60755;51.374;10.662;2023-02-28T05:55:16;4.43;;;3.20;;
72676;SDS011;60755;51.374;10.662;2023-02-28T05:57:43;7.50;;;6.20;;
72676;SDS011;60755;51.374;10.662;2023-02-28T06:00:11;3.30;;;3.00;;
72676;SDS011;60755;51.374;10.662;2023-02-28T06:02:40;7.27;;;5.33;;
72676;SDS011;60755;51.374;10.662;2023-02-28T06:05:09;3.10;;;2.90;;
72676;SDS011;60755;51.374;10.662;2023-02-28T06:07:40;5.40;;;3.20;;
72676;SDS011;60755;51.374;10.662;2023-02-28T06:10:07;3.60;;;3.13;;
72676;SDS011;60755;51.374;10.662;2023-02-28T06:12:34;3.70;;;3.40;;
72676;SDS011;60755;51.374;10.662;2023-02-28T06:15:02;8.27;;;7.23;;
72676;SDS011;60755;51.374;10.662;2023-02-28T06:17:29;3.87;;;3.43;;
72676;SDS011;60755;51.374;10.662;2023-02-28T06:19:56;3.67;;;3.37;;
72676;SDS011;60755;51.374;10.662;2023-02-28T06:22:24;17.63;;;9.17;;
72676;SDS011;60755;51.374;10.662;2023-02-28T06:24:51;7.20;;;4.40;;
72676;SDS011;60755;51.374;10.662;2023-02-28T06:27:20;18.33;;;7.43;;
72676;SDS011;60755;51.374;10.662;2023-02-28T06:29:47;56.97;;;16.77;;
72676;SDS011;60755;51.374;10.662;2023-02-28T06:32:14;23.03;;;8.93;;
72676;SDS011;60755;51.374;10.662;2023-02-28T06:34:41;40.23;;;13.00;;
72676;SDS011;60755;51.374;10.662;2023-02-28T06:37:08;65.60;;;22.23;;
72676;SDS011;60755;51.374;10.662;2023-02-28T06:39:36;47.33;;;16.37;;
72676;SDS011;60755;51.374;10.662;2023-02-28T06:42:04;34.03;;;12.83;;
72676;SDS011;60755;51.374;10.662;2023-02-28T06:44:31;15.03;;;7.67;;
72676;SDS011;60755;51.374;10.662;2023-02-28T06:47:00;5.13;;;4.13;;
72676;SDS011;60755;51.374;10.662;2023-02-28T06:49:29;4.57;;;3.90;;
72676;SDS011;60755;51.374;10.662;2023-02-28T06:51:56;19.63;;;9.23;;
72676;SDS011;60755;51.374;10.662;2023-02-28T06:54:23;6.70;;;3.73;;
72676;SDS011;60755;51.374;10.662;2023-02-28T06:56:51;5.47;;;4.03;;
72676;SDS011;60755;51.374;10.662;2023-02-28T06:59:19;4.97;;;3.70;;
72676;SDS011;60755;51.374;10.662;2023-02-28T07:01:46;7.23;;;4.60;;
72676;SDS011;60755;51.374;10.662;2023-02-28T07:04:13;8.10;;;5.27;;
72676;SDS011;60755;51.374;10.662;2023-02-28T07:06:40;4.50;;;4.10;;
72676;SDS011;60755;51.374;10.662;2023-02-28T07:09:07;4.80;;;3.73;;
72676;SDS011;60755;51.374;10.662;2023-02-28T07:11:34;5.07;;;3.27;;
72676;SDS011;60755;51.374;10.662;2023-02-28T07:14:03;3.80;;;2.93;;
72676;SDS011;60755;51.374;10.662;2023-02-28T07:16:30;13.33;;;8.40;;
72676;SDS011;60755;51.374;10.662;2023-02-28T07:18:56;5.60;;;4.23;;
72676;SDS011;60755;51.374;10.662;2023-02-28T07:21:23;13.90;;;8.23;;
72676;SDS011;60755;51.374;10.662;2023-02-28T07:23:50;8.00;;;6.00;;
72676;SDS011;60755;51.374;10.662;2023-02-28T07:26:18;4.63;;;3.80;;
72676;SDS011;60755;51.374;10.662;2023-02-28T07:28:47;5.03;;;4.53;;
72676;SDS011;60755;51.374;10.662;2023-02-28T07:31:17;22.27;;;12.83;;
72676;SDS011;60755;51.374;10.662;2023-02-28T07:33:44;5.13;;;4.07;;
72676;SDS011;60755;51.374;10.662;2023-02-28T07:36:12;17.07;;;10.60;;
72676;SDS011;60755;51.374;10.662;2023-02-28T07:38:41;5.00;;;3.40;;
72676;SDS011;60755;51.374;10.662;2023-02-28T07:41:09;5.20;;;4.40;;
72676;SDS011;60755;51.374;10.662;2023-02-28T07:43:36;11.73;;;8.23;;
72676;SDS011;60755;51.374;10.662;2023-02-28T07:46:03;3.87;;;3.53;;
72676;SDS011;60755;51.374;10.662;2023-02-28T07:48:33;4.17;;;3.50;;
72676;SDS011;60755;51.374;10.662;2023-02-28T07:51:00;5.33;;;4.87;;
72676;SDS011;60755;51.374;10.662;2023-02-28T07:53:28;4.70;;;4.13;;
72676;SDS011;60755;51.374;10.662;2023-02-28T07:55:56;4.20;;;3.90;;
72676;SDS011;60755;51.374;10.662;2023-02-28T07:58:24;5.23;;;3.87;;
72676;SDS011;60755;51.374;10.662;2023-02-28T08:00:52;3.60;;;3.33;;
72676;SDS011;60755;51.374;10.662;2023-02-28T08:03:19;5.30;;;3.70;;
72676;SDS011;60755;51.374;10.662;2023-02-28T08:05:49;4.20;;;3.27;;
72676;SDS011;60755;51.374;10.662;2023-02-28T08:08:17;3.73;;;3.27;;
72676;SDS011;60755;51.374;10.662;2023-02-28T08:10:45;4.10;;;3.60;;
72676;SDS011;60755;51.374;10.662;2023-02-28T08:13:11;4.13;;;3.73;;
72676;SDS011;60755;51.374;10.662;2023-02-28T08:15:40;3.77;;;3.47;;
72676;SDS011;60755;51.374;10.662;2023-02-28T08:18:07;4.73;;;4.00;;
72676;SDS011;60755;51.374;10.662;2023-02-28T08:20:34;4.27;;;3.80;;
72676;SDS011;60755;51.374;10.662;2023-02-28T08:23:02;6.50;;;4.27;;
72676;SDS011;60755;51.374;10.662;2023-02-28T08:25:29;5.33;;;3.80;;
72676;SDS011;60755;51.374;10.662;2023-02-28T08:27:56;5.20;;;4.17;;
72676;SDS011;60755;51.374;10.662;2023-02-28T08:30:23;4.97;;;3.90;;
72676;SDS011;60755;51.374;10.662;2023-02-28T08:32:50;4.70;;;3.80;;
72676;SDS011;60755;51.374;10.662;2023-02-28T08:35:17;4.97;;;4.47;;
72676;SDS011;60755;51.374;10.662;2023-02-28T08:37:44;5.37;;;3.93;;
72676;SDS011;60755;51.374;10.662;2023-02-28T08:40:12;5.07;;;4.07;;
72676;SDS011;60755;51.374;10.662;2023-02-28T08:42:43;4.03;;;3.73;;
72676;SDS011;60755;51.374;10.662;2023-02-28T08:45:10;7.07;;;4.00;;
72676;SDS011;60755;51.374;10.662;2023-02-28T08:47:37;4.37;;;3.97;;
72676;SDS011;60755;51.374;10.662;2023-02-28T08:50:05;5.13;;;4.20;;
72676;SDS011;60755;51.374;10.662;2023-02-28T08:52:32;4.73;;;4.30;;
72676;SDS011;60755;51.374;10.662;2023-02-28T08:54:59;5.47;;;4.90;;
72676;SDS011;60755;51.374;10.662;2023-02-28T08:57:27;4.83;;;4.33;;
72676;SDS011;60755;51.374;10.662;2023-02-28T08:59:54;4.33;;;3.67;;
72676;SDS011;60755;51.374;10.662;2023-02-28T09:02:22;6.83;;;3.33;;
72676;SDS011;60755;51.374;10.662;2023-02-28T09:04:49;5.77;;;4.33;;
72676;SDS011;60755;51.374;10.662;2023-02-28T09:07:16;5.23;;;4.40;;
72676;SDS011;60755;51.374;10.662;2023-02-28T09:09:43;4.63;;;3.50;;
72676;SDS011;60755;51.374;10.662;2023-02-28T09:12:20;3.80;;;3.23;;
72676;SDS011;60755;51.374;10.662;2023-02-28T09:14:48;4.53;;;4.13;;
72676;SDS011;60755;51.374;10.662;2023-02-28T09:17:15;4.60;;;4.20;;
72676;SDS011;60755;51.374;10.662;2023-02-28T09:19:42;6.40;;;3.97;;
72676;SDS011;60755;51.374;10.662;2023-02-28T09:22:10;4.73;;;4.00;;
72676;SDS011;60755;51.374;10.662;2023-02-28T09:24:37;4.23;;;3.83;;
72676;SDS011;60755;51.374;10.662;2023-02-28T09:27:04;3.50;;;3.20;;
72676;SDS011;60755;51.374;10.662;2023-02-28T09:29:32;8.33;;;4.07;;
72676;SDS011;60755;51.374;10.662;2023-02-28T09:32:01;3.10;;;2.80;;
72676;SDS011;60755;51.374;10.662;2023-02-28T09:34:30;4.60;;;3.77;;
72676;SDS011;60755;51.374;10.662;2023-02-28T09:36:58;5.00;;;4.10;;
72676;SDS011;60755;51.374;10.662;2023-02-28T09:39:25;4.20;;;3.63;;
72676;SDS011;60755;51.374;10.662;2023-02-28T09:41:54;4.20;;;3.80;;
72676;SDS011;60755;51.374;10.662;2023-02-28T09:44:24;5.60;;;4.27;;
72676;SDS011;60755;51.374;10.662;2023-02-28T09:46:56;5.50;;;4.10;;
72676;SDS011;60755;51.374;10.662;2023-02-28T09:49:31;4.87;;;4.47;;
72676;SDS011;60755;51.374;10.662;2023-02-28T09:52:03;4.33;;;3.93;;
72676;SDS011;60755;51.374;10.662;2023-02-28T09:54:34;4.80;;;4.30;;
72676;SDS011;60755;51.374;10.662;2023-02-28T09:57:04;5.03;;;3.93;;
72676;SDS011;60755;51.374;10.662;2023-02-28T09:59:42;5.83;;;4.70;;
72676;SDS011;60755;51.374;10.662;2023-02-28T10:02:24;7.97;;;5.53;;
72676;SDS011;60755;51.374;10.662;2023-02-28T10:05:09;4.43;;;4.00;;
72676;SDS011;60755;51.374;10.662;2023-02-28T10:07:48;8.17;;;4.27;;
72676;SDS011;60755;51.374;10.662;2023-02-28T10:10:26;4.30;;;3.90;;
72676;SDS011;60755;51.374;10.662;2023-02-28T10:12:57;8.33;;;4.60;;
72676;SDS011;60755;51.374;10.662;2023-02-28T10:15:27;7.17;;;4.93;;
72676;SDS011;60755;51.374;10.662;2023-02-28T10:17:58;6.23;;;4.80;;
72676;SDS011;60755;51.374;10.662;2023-02-28T10:20:31;5.00;;;4.50;;
72676;SDS011;60755;51.374;10.662;2023-02-28T10:23:04;4.00;;;3.70;;
72676;SDS011;60755;51.374;10.662;2023-02-28T10:25:38;3.00;;;2.80;;
72676;SDS011;60755;51.374;10.662;2023-02-28T10:28:09;5.30;;;3.80;;
72676;SDS011;60755;51.374;10.662;2023-02-28T10:30:38;4.07;;;3.37;;
72676;SDS011;60755;51.374;10.662;2023-02-28T10:33:11;5.70;;;4.27;;
72676;SDS011;60755;51.374;10.662;2023-02-28T10:35:46;4.20;;;3.87;;
72676;SDS011;60755;51.374;10.662;2023-02-28T10:38:16;4.30;;;3.90;;
72676;SDS011;60755;51.374;10.662;2023-02-28T10:40:44;5.47;;;4.30;;
72676;SDS011;60755;51.374;10.662;2023-02-28T10:43:19;4.90;;;4.23;;
72676;SDS011;60755;51.374;10.662;2023-02-28T10:45:56;6.10;;;4.57;;
72676;SDS011;60755;51.374;10.662;2023-02-28T10:48:30;6.93;;;4.70;;
72676;SDS011;60755;51.374;10.662;2023-02-28T10:51:01;8.53;;;6.53;;
72676;SDS011;60755;51.374;10.662;2023-02-28T10:53:33;6.63;;;5.50;;
72676;SDS011;60755;51.374;10.662;2023-02-28T10:56:04;11.53;;;8.00;;
72676;SDS011;60755;51.374;10.662;2023-02-28T10:58:42;5.10;;;3.97;;
72676;SDS011;60755;51.374;10.662;2023-02-28T11:01:15;4.23;;;3.83;;
72676;SDS011;60755;51.374;10.662;2023-02-28T11:03:43;4.87;;;4.47;;
72676;SDS011;60755;51.374;10.662;2023-02-28T11:06:15;12.63;;;8.57;;
72676;SDS011;60755;51.374;10.662;2023-02-28T11:08:49;9.00;;;5.93;;
72676;SDS011;60755;51.374;10.662;2023-02-28T11:11:18;9.90;;;6.73;;
72676;SDS011;60755;51.374;10.662;2023-02-28T11:13:46;10.23;;;7.23;;
72676;SDS011;60755;51.374;10.662;2023-02-28T11:16:16;5.47;;;4.60;;
72676;SDS011;60755;51.374;10.662;2023-02-28T11:18:46;5.70;;;5.10;;
72676;SDS011;60755;51.374;10.662;2023-02-28T11:21:18;10.43;;;6.33;;
72676;SDS011;60755;51.374;10.662;2023-02-28T11:23:49;9.47;;;6.07;;
72676;SDS011;60755;51.374;10.662;2023-02-28T11:29:09;8.07;;;5.17;;
72676;SDS011;60755;51.374;10.662;2023-02-28T11:31:38;8.40;;;5.20;;
72676;SDS011;60755;51.374;10.662;2023-02-28T11:36:54;5.57;;;5.00;;
72676;SDS011;60755;51.374;10.662;2023-02-28T11:39:23;5.93;;;5.07;;
72676;SDS011;60755;51.374;10.662;2023-02-28T11:42:01;7.33;;;6.00;;
72676;SDS011;60755;51.374;10.662;2023-02-28T11:47:30;5.30;;;4.80;;
72676;SDS011;60755;51.374;10.662;2023-02-28T11:50:10;9.00;;;5.13;;
72676;SDS011;60755;51.374;10.662;2023-02-28T11:52:48;4.83;;;4.33;;
72676;SDS011;60755;51.374;10.662;2023-02-28T11:55:19;5.60;;;5.00;;
72676;SDS011;60755;51.374;10.662;2023-02-28T11:57:53;6.13;;;5.37;;
72676;SDS011;60755;51.374;10.662;2023-02-28T12:00:42;5.57;;;4.63;;
72676;SDS011;60755;51.374;10.662;2023-02-28T12:03:26;5.97;;;5.37;;
72676;SDS011;60755;51.374;10.662;2023-02-28T12:06:00;10.43;;;6.57;;
72676;SDS011;60755;51.374;10.662;2023-02-28T12:08:42;6.40;;;5.23;;
72676;SDS011;60755;51.374;10.662;2023-02-28T12:11:19;6.77;;;4.93;;
72676;SDS011;60755;51.374;10.662;2023-02-28T12:13:59;6.73;;;5.20;;
72676;SDS011;60755;51.374;10.662;2023-02-28T12:16:45;8.93;;;5.90;;
72676;SDS011;60755;51.374;10.662;2023-02-28T12:19:21;6.53;;;5.33;;
72676;SDS011;60755;51.374;10.662;2023-02-28T12:28:00;9.80;;;6.80;;
72676;SDS011;60755;51.374;10.662;2023-02-28T12:30:28;8.70;;;5.27;;
72676;SDS011;60755;51.374;10.662;2023-02-28T12:33:00;5.67;;;5.07;;
72676;SDS011;60755;51.374;10.662;2023-02-28T12:35:32;6.33;;;4.87;;
72676;SDS011;60755;51.374;10.662;2023-02-28T12:38:02;5.87;;;5.23;;
72676;SDS011;60755;51.374;10.662;2023-02-28T12:40:33;6.97;;;5.40;;
72676;SDS011;60755;51.374;10.662;2023-02-28T12:43:11;9.53;;;7.03;;
72676;SDS011;60755;51.374;10.662;2023-02-28T12:45:42;7.30;;;6.20;;
72676;SDS011;60755;51.374;10.662;2023-02-28T12:48:15;7.63;;;5.93;;
72676;SDS011;60755;51.374;10.662;2023-02-28T12:50:47;8.67;;;6.00;;
72676;SDS011;60755;51.374;10.662;2023-02-28T12:53:17;6.13;;;5.30;;
72676;SDS011;60755;51.374;10.662;2023-02-28T12:55:50;8.47;;;6.20;;
72676;SDS011;60755;51.374;10.662;2023-02-28T12:58:27;7.30;;;6.60;;
72676;SDS011;60755;51.374;10.662;2023-02-28T13:01:15;9.87;;;7.00;;
72676;SDS011;60755;51.374;10.662;2023-02-28T13:04:24;8.60;;;6.37;;
72676;SDS011;60755;51.374;10.662;2023-02-28T13:10:04;7.97;;;6.17;;
72676;SDS011;60755;51.374;10.662;2023-02-28T13:12:33;9.90;;;6.97;;
72676;SDS011;60755;51.374;10.662;2023-02-28T13:15:06;8.70;;;6.13;;
72676;SDS011;60755;51.374;10.662;2023-02-28T13:17:38;8.07;;;6.27;;
72676;SDS011;60755;51.374;10.662;2023-02-28T13:20:14;9.23;;;6.63;;
72676;SDS011;60755;51.374;10.662;2023-02-28T13:22:43;9.23;;;7.07;;
72676;SDS011;60755;51.374;10.662;2023-02-28T13:31:34;10.13;;;7.30;;
72676;SDS011;60755;51.374;10.662;2023-02-28T13:34:40;9.23;;;6.70;;
72676;SDS011;60755;51.374;10.662;2023-02-28T13:40:07;8.67;;;7.13;;
72676;SDS011;60755;51.374;10.662;2023-02-28T13:42:56;8.10;;;6.50;;
72676;SDS011;60755;51.374;10.662;2023-02-28T13:45:24;8.70;;;6.17;;
72676;SDS011;60755;51.374;10.662;2023-02-28T13:48:00;8.07;;;6.20;;
72676;SDS011;60755;51.374;10.662;2023-02-28T13:50:30;7.37;;;6.37;;
72676;SDS011;60755;51.374;10.662;2023-02-28T13:56:19;6.27;;;5.10;;
72676;SDS011;60755;51.374;10.662;2023-02-28T13:58:54;7.40;;;6.23;;
72676;SDS011;60755;51.374;10.662;2023-02-28T14:01:29;10.03;;;7.00;;
72676;SDS011;60755;51.374;10.662;2023-02-28T14:04:14;6.53;;;5.53;;
72676;SDS011;60755;51.374;10.662;2023-02-28T14:07:05;6.40;;;5.40;;
72676;SDS011;60755;51.374;10.662;2023-02-28T14:09:34;5.47;;;4.97;;
72676;SDS011;60755;51.374;10.662;2023-02-28T14:18:27;9.17;;;6.07;;
72676;SDS011;60755;51.374;10.662;2023-02-28T14:21:03;16.27;;;9.03;;
72676;SDS011;60755;51.374;10.662;2023-02-28T14:23:43;11.33;;;8.00;;
72676;SDS011;60755;51.374;10.662;2023-02-28T14:26:28;17.57;;;10.23;;
72676;SDS011;60755;51.374;10.662;2023-02-28T14:29:09;12.27;;;8.40;;
72676;SDS011;60755;51.374;10.662;2023-02-28T14:31:47;12.17;;;8.70;;
72676;SDS011;60755;51.374;10.662;2023-02-28T14:34:24;11.03;;;7.43;;
72676;SDS011;60755;51.374;10.662;2023-02-28T14:37:03;7.77;;;6.10;;
72676;SDS011;60755;51.374;10.662;2023-02-28T14:39:33;11.70;;;8.00;;
72676;SDS011;60755;51.374;10.662;2023-02-28T14:42:02;7.63;;;5.80;;
72676;SDS011;60755;51.374;10.662;2023-02-28T14:44:30;11.77;;;7.57;;
72676;SDS011;60755;51.374;10.662;2023-02-28T14:46:58;7.80;;;6.70;;
72676;SDS011;60755;51.374;10.662;2023-02-28T14:49:30;9.33;;;6.53;;
72676;SDS011;60755;51.374;10.662;2023-02-28T14:52:03;9.10;;;6.27;;
72676;SDS011;60755;51.374;10.662;2023-02-28T14:54:34;7.57;;;5.97;;
72676;SDS011;60755;51.374;10.662;2023-02-28T14:57:02;11.17;;;7.83;;
72676;SDS011;60755;51.374;10.662;2023-02-28T14:59:30;6.47;;;5.80;;
72676;SDS011;60755;51.374;10.662;2023-02-28T15:02:18;9.60;;;6.93;;
72676;SDS011;60755;51.374;10.662;2023-02-28T15:04:53;8.57;;;6.70;;
72676;SDS011;60755;51.374;10.662;2023-02-28T15:07:23;7.10;;;6.10;;
72676;SDS011;60755;51.374;10.662;2023-02-28T15:10:08;10.63;;;6.07;;
72676;SDS011;60755;51.374;10.662;2023-02-28T15:12:37;9.73;;;6.20;;
72676;SDS011;60755;51.374;10.662;2023-02-28T15:15:13;8.10;;;6.37;;
72676;SDS011;60755;51.374;10.662;2023-02-28T15:17:42;15.20;;;10.70;;
72676;SDS011;60755;51.374;10.662;2023-02-28T15:20:12;13.53;;;9.90;;
72676;SDS011;60755;51.374;10.662;2023-02-28T15:22:43;10.30;;;6.30;;
72676;SDS011;60755;51.374;10.662;2023-02-28T15:25:13;6.93;;;6.13;;
72676;SDS011;60755;51.374;10.662;2023-02-28T15:27:45;9.17;;;5.80;;
72676;SDS011;60755;51.374;10.662;2023-02-28T15:30:16;8.53;;;6.67;;
72676;SDS011;60755;51.374;10.662;2023-02-28T15:32:45;11.07;;;7.93;;
72676;SDS011;60755;51.374;10.662;2023-02-28T15:35:31;10.37;;;7.00;;
72676;SDS011;60755;51.374;10.662;2023-02-28T15:38:02;13.37;;;8.13;;